Terminal Aerodrome Forecast
Issued by NWS

Current Version | Previous Version | Text Only | Print | Product List | Glossary Off
Versions: 1 2 3 4 5 6 7 8 9 10 11 12 13 14 15 16 17 18 19 20 21 22 23 24 25 26 27 28 29 30 31 32 33 34 35 36 37 38 39 40 41 42

000
FTUS41 KRNK 260415 AAB
TAFLWB
TAF AMD
KLWB 260415Z 2604/2624 VRB03KT P6SM OVC045
     FM260600 09003KT 5SM -RA BR OVC040
     FM260800 VRB03KT 3/4SM -SN BR SCT003 OVC015
     FM261300 07003KT 2SM -SN OVC005
     FM261800 32005KT 1SM -RASN BR OVC010=

USA.gov is the U.S. government's official web portal to all federal, state and local government web resources and services.